sensor_id;sensor_type;location;lat;lon;timestamp;P1;durP1;ratioP1;P2;durP2;ratioP2
19004;SDS011;9635;52.078;8.648;2023-11-22T00:03:59;8.35;;;5.88;;
19004;SDS011;9635;52.078;8.648;2023-11-22T00:09:02;12.07;;;5.68;;
19004;SDS011;9635;52.078;8.648;2023-11-22T00:14:07;14.40;;;6.68;;
19004;SDS011;9635;52.078;8.648;2023-11-22T00:19:10;8.93;;;6.13;;
19004;SDS011;9635;52.078;8.648;2023-11-22T00:24:13;9.30;;;5.35;;
19004;SDS011;9635;52.078;8.648;2023-11-22T00:29:19;8.25;;;5.72;;
19004;SDS011;9635;52.078;8.648;2023-11-22T00:34:22;9.88;;;6.05;;
19004;SDS011;9635;52.078;8.648;2023-11-22T00:39:25;9.88;;;5.95;;
19004;SDS011;9635;52.078;8.648;2023-11-22T00:44:29;8.10;;;5.60;;
19004;SDS011;9635;52.078;8.648;2023-11-22T00:49:32;11.00;;;6.50;;
19004;SDS011;9635;52.078;8.648;2023-11-22T00:54:35;11.80;;;6.65;;
19004;SDS011;9635;52.078;8.648;2023-11-22T00:59:40;9.52;;;5.72;;
19004;SDS011;9635;52.078;8.648;2023-11-22T01:04:43;8.55;;;5.20;;
19004;SDS011;9635;52.078;8.648;2023-11-22T01:09:46;10.50;;;5.30;;
19004;SDS011;9635;52.078;8.648;2023-11-22T01:14:52;7.97;;;5.55;;
19004;SDS011;9635;52.078;8.648;2023-11-22T01:19:55;10.20;;;5.80;;
19004;SDS011;9635;52.078;8.648;2023-11-22T01:25:00;9.45;;;6.20;;
19004;SDS011;9635;52.078;8.648;2023-11-22T01:30:05;8.35;;;5.32;;
19004;SDS011;9635;52.078;8.648;2023-11-22T01:35:09;9.35;;;6.00;;
19004;SDS011;9635;52.078;8.648;2023-11-22T01:40:13;8.07;;;5.05;;
19004;SDS011;9635;52.078;8.648;2023-11-22T01:45:18;9.48;;;5.25;;
19004;SDS011;9635;52.078;8.648;2023-11-22T01:50:20;8.85;;;5.43;;
19004;SDS011;9635;52.078;8.648;2023-11-22T01:55:23;6.90;;;5.00;;
19004;SDS011;9635;52.078;8.648;2023-11-22T02:00:28;6.47;;;4.88;;
19004;SDS011;9635;52.078;8.648;2023-11-22T02:05:39;7.30;;;4.93;;
19004;SDS011;9635;52.078;8.648;2023-11-22T02:10:44;6.90;;;4.68;;
19004;SDS011;9635;52.078;8.648;2023-11-22T02:15:52;10.30;;;5.43;;
19004;SDS011;9635;52.078;8.648;2023-11-22T02:20:57;8.02;;;5.00;;
19004;SDS011;9635;52.078;8.648;2023-11-22T02:26:02;9.10;;;5.85;;
19004;SDS011;9635;52.078;8.648;2023-11-22T02:31:05;7.55;;;5.05;;
19004;SDS011;9635;52.078;8.648;2023-11-22T02:36:08;11.15;;;5.55;;
19004;SDS011;9635;52.078;8.648;2023-11-22T02:41:15;10.35;;;6.00;;
19004;SDS011;9635;52.078;8.648;2023-11-22T02:46:18;8.27;;;4.95;;
19004;SDS011;9635;52.078;8.648;2023-11-22T02:51:21;9.13;;;4.85;;
19004;SDS011;9635;52.078;8.648;2023-11-22T02:56:26;7.70;;;4.80;;
19004;SDS011;9635;52.078;8.648;2023-11-22T03:01:29;11.63;;;4.97;;
19004;SDS011;9635;52.078;8.648;2023-11-22T03:06:32;6.93;;;4.63;;
19004;SDS011;9635;52.078;8.648;2023-11-22T03:11:37;9.27;;;5.15;;
19004;SDS011;9635;52.078;8.648;2023-11-22T03:16:41;7.88;;;5.20;;
19004;SDS011;9635;52.078;8.648;2023-11-22T03:21:45;7.85;;;4.93;;
19004;SDS011;9635;52.078;8.648;2023-11-22T03:26:49;11.82;;;4.50;;
19004;SDS011;9635;52.078;8.648;2023-11-22T03:31:54;8.18;;;4.97;;
19004;SDS011;9635;52.078;8.648;2023-11-22T03:36:57;5.90;;;4.95;;
19004;SDS011;9635;52.078;8.648;2023-11-22T03:42:01;11.10;;;6.18;;
19004;SDS011;9635;52.078;8.648;2023-11-22T03:47:04;12.30;;;5.20;;
19004;SDS011;9635;52.078;8.648;2023-11-22T03:52:09;12.90;;;6.10;;
19004;SDS011;9635;52.078;8.648;2023-11-22T03:57:14;11.10;;;5.85;;
19004;SDS011;9635;52.078;8.648;2023-11-22T04:02:18;9.45;;;5.45;;
19004;SDS011;9635;52.078;8.648;2023-11-22T04:07:21;11.15;;;6.20;;
19004;SDS011;9635;52.078;8.648;2023-11-22T04:12:25;9.88;;;6.13;;
19004;SDS011;9635;52.078;8.648;2023-11-22T04:17:28;15.07;;;5.97;;
19004;SDS011;9635;52.078;8.648;2023-11-22T04:22:32;12.55;;;6.20;;
19004;SDS011;9635;52.078;8.648;2023-11-22T04:27:37;9.70;;;5.05;;
19004;SDS011;9635;52.078;8.648;2023-11-22T04:32:40;10.15;;;5.53;;
19004;SDS011;9635;52.078;8.648;2023-11-22T04:37:43;8.13;;;5.18;;
19004;SDS011;9635;52.078;8.648;2023-11-22T04:42:49;10.25;;;5.78;;
19004;SDS011;9635;52.078;8.648;2023-11-22T04:47:52;10.77;;;6.18;;
19004;SDS011;9635;52.078;8.648;2023-11-22T04:52:58;9.40;;;5.75;;
19004;SDS011;9635;52.078;8.648;2023-11-22T04:58:04;7.80;;;5.55;;
19004;SDS011;9635;52.078;8.648;2023-11-22T05:03:07;11.63;;;6.88;;
19004;SDS011;9635;52.078;8.648;2023-11-22T05:08:10;10.77;;;6.80;;
19004;SDS011;9635;52.078;8.648;2023-11-22T05:13:14;13.02;;;6.53;;
19004;SDS011;9635;52.078;8.648;2023-11-22T05:18:17;11.20;;;5.65;;
19004;SDS011;9635;52.078;8.648;2023-11-22T05:23:20;10.13;;;6.03;;
19004;SDS011;9635;52.078;8.648;2023-11-22T05:28:24;12.70;;;5.90;;
19004;SDS011;9635;52.078;8.648;2023-11-22T05:33:28;8.93;;;5.28;;
19004;SDS011;9635;52.078;8.648;2023-11-22T05:38:30;10.65;;;6.35;;
19004;SDS011;9635;52.078;8.648;2023-11-22T05:43:36;10.85;;;6.53;;
19004;SDS011;9635;52.078;8.648;2023-11-22T05:48:40;16.55;;;6.75;;
19004;SDS011;9635;52.078;8.648;2023-11-22T05:53:43;12.63;;;6.60;;
19004;SDS011;9635;52.078;8.648;2023-11-22T05:58:48;10.90;;;6.70;;
19004;SDS011;9635;52.078;8.648;2023-11-22T06:03:51;11.82;;;6.80;;
19004;SDS011;9635;52.078;8.648;2023-11-22T06:08:54;13.27;;;7.50;;
19004;SDS011;9635;52.078;8.648;2023-11-22T06:13:58;11.93;;;6.70;;
19004;SDS011;9635;52.078;8.648;2023-11-22T06:19:01;14.23;;;6.78;;
19004;SDS011;9635;52.078;8.648;2023-11-22T06:24:04;13.25;;;6.72;;
19004;SDS011;9635;52.078;8.648;2023-11-22T06:29:11;10.07;;;6.45;;
19004;SDS011;9635;52.078;8.648;2023-11-22T06:34:14;10.38;;;7.07;;
19004;SDS011;9635;52.078;8.648;2023-11-22T06:39:17;17.88;;;8.15;;
19004;SDS011;9635;52.078;8.648;2023-11-22T06:44:22;13.95;;;7.13;;
19004;SDS011;9635;52.078;8.648;2023-11-22T06:49:25;13.02;;;6.85;;
19004;SDS011;9635;52.078;8.648;2023-11-22T06:54:28;13.43;;;8.30;;
19004;SDS011;9635;52.078;8.648;2023-11-22T06:59:32;14.70;;;7.60;;
19004;SDS011;9635;52.078;8.648;2023-11-22T07:04:35;16.00;;;8.43;;
19004;SDS011;9635;52.078;8.648;2023-11-22T07:09:41;13.15;;;8.20;;
19004;SDS011;9635;52.078;8.648;2023-11-22T07:14:45;16.85;;;8.35;;
19004;SDS011;9635;52.078;8.648;2023-11-22T07:19:51;16.27;;;8.70;;
19004;SDS011;9635;52.078;8.648;2023-11-22T07:24:54;7.28;;;4.32;;
19004;SDS011;9635;52.078;8.648;2023-11-22T07:30:03;24.67;;;11.75;;
19004;SDS011;9635;52.078;8.648;2023-11-22T07:35:07;24.00;;;14.07;;
19004;SDS011;9635;52.078;8.648;2023-11-22T07:40:11;15.60;;;9.90;;
19004;SDS011;9635;52.078;8.648;2023-11-22T07:45:16;8.93;;;6.07;;
19004;SDS011;9635;52.078;8.648;2023-11-22T07:50:20;8.52;;;6.68;;
19004;SDS011;9635;52.078;8.648;2023-11-22T07:55:25;8.85;;;6.38;;
19004;SDS011;9635;52.078;8.648;2023-11-22T08:00:29;8.90;;;6.13;;
19004;SDS011;9635;52.078;8.648;2023-11-22T08:05:32;10.88;;;6.63;;
19004;SDS011;9635;52.078;8.648;2023-11-22T08:10:37;15.80;;;8.07;;
19004;SDS011;9635;52.078;8.648;2023-11-22T08:15:42;14.45;;;8.25;;
19004;SDS011;9635;52.078;8.648;2023-11-22T08:20:46;11.32;;;7.28;;
19004;SDS011;9635;52.078;8.648;2023-11-22T08:25:49;13.43;;;7.25;;
19004;SDS011;9635;52.078;8.648;2023-11-22T08:30:58;11.48;;;6.68;;
19004;SDS011;9635;52.078;8.648;2023-11-22T08:36:02;11.18;;;5.95;;
19004;SDS011;9635;52.078;8.648;2023-11-22T08:41:06;13.27;;;7.28;;
19004;SDS011;9635;52.078;8.648;2023-11-22T08:46:11;12.07;;;6.68;;
19004;SDS011;9635;52.078;8.648;2023-11-22T08:51:15;11.38;;;6.18;;
19004;SDS011;9635;52.078;8.648;2023-11-22T08:56:18;9.70;;;7.13;;
19004;SDS011;9635;52.078;8.648;2023-11-22T09:01:23;11.70;;;7.95;;
19004;SDS011;9635;52.078;8.648;2023-11-22T09:06:27;15.70;;;7.38;;
19004;SDS011;9635;52.078;8.648;2023-11-22T09:11:31;11.27;;;7.13;;
19004;SDS011;9635;52.078;8.648;2023-11-22T09:16:37;10.48;;;7.45;;
19004;SDS011;9635;52.078;8.648;2023-11-22T09:21:41;13.57;;;8.18;;
19004;SDS011;9635;52.078;8.648;2023-11-22T09:26:45;12.43;;;7.55;;
19004;SDS011;9635;52.078;8.648;2023-11-22T09:31:49;11.63;;;8.07;;
19004;SDS011;9635;52.078;8.648;2023-11-22T09:36:53;17.75;;;7.88;;
19004;SDS011;9635;52.078;8.648;2023-11-22T09:41:56;12.45;;;7.68;;
19004;SDS011;9635;52.078;8.648;2023-11-22T09:47:00;12.30;;;7.75;;
19004;SDS011;9635;52.078;8.648;2023-11-22T09:52:05;11.48;;;7.05;;
19004;SDS011;9635;52.078;8.648;2023-11-22T09:57:17;9.40;;;6.10;;
19004;SDS011;9635;52.078;8.648;2023-11-22T10:02:23;10.55;;;6.15;;
19004;SDS011;9635;52.078;8.648;2023-11-22T10:07:28;9.80;;;6.68;;
19004;SDS011;9635;52.078;8.648;2023-11-22T10:12:31;11.13;;;6.70;;
19004;SDS011;9635;52.078;8.648;2023-11-22T10:17:39;9.00;;;5.90;;
19004;SDS011;9635;52.078;8.648;2023-11-22T10:22:45;11.23;;;5.80;;
19004;SDS011;9635;52.078;8.648;2023-11-22T10:27:49;11.63;;;5.38;;
19004;SDS011;9635;52.078;8.648;2023-11-22T10:32:54;8.90;;;5.03;;
19004;SDS011;9635;52.078;8.648;2023-11-22T10:37:59;8.32;;;5.05;;
19004;SDS011;9635;52.078;8.648;2023-11-22T10:43:03;10.85;;;4.93;;
19004;SDS011;9635;52.078;8.648;2023-11-22T10:48:09;6.50;;;4.32;;
19004;SDS011;9635;52.078;8.648;2023-11-22T10:53:15;4.93;;;3.67;;
19004;SDS011;9635;52.078;8.648;2023-11-22T10:58:23;4.07;;;3.42;;
19004;SDS011;9635;52.078;8.648;2023-11-22T11:03:31;4.80;;;2.33;;
19004;SDS011;9635;52.078;8.648;2023-11-22T11:08:41;3.58;;;1.95;;
19004;SDS011;9635;52.078;8.648;2023-11-22T11:13:48;3.40;;;1.73;;
19004;SDS011;9635;52.078;8.648;2023-11-22T11:18:53;4.32;;;2.80;;
19004;SDS011;9635;52.078;8.648;2023-11-22T11:23:57;4.35;;;1.75;;
19004;SDS011;9635;52.078;8.648;2023-11-22T11:29:04;4.28;;;1.98;;
19004;SDS011;9635;52.078;8.648;2023-11-22T11:34:10;2.88;;;1.88;;
19004;SDS011;9635;52.078;8.648;2023-11-22T11:39:13;2.10;;;1.90;;
19004;SDS011;9635;52.078;8.648;2023-11-22T11:44:17;3.97;;;1.73;;
19004;SDS011;9635;52.078;8.648;2023-11-22T11:49:22;3.78;;;1.38;;
19004;SDS011;9635;52.078;8.648;2023-11-22T11:54:25;3.58;;;2.65;;
19004;SDS011;9635;52.078;8.648;2023-11-22T11:59:28;2.85;;;2.15;;
19004;SDS011;9635;52.078;8.648;2023-11-22T12:04:35;4.35;;;2.03;;
19004;SDS011;9635;52.078;8.648;2023-11-22T12:09:37;2.45;;;1.85;;
19004;SDS011;9635;52.078;8.648;2023-11-22T12:14:40;3.50;;;2.28;;
19004;SDS011;9635;52.078;8.648;2023-11-22T12:19:46;5.22;;;2.80;;
19004;SDS011;9635;52.078;8.648;2023-11-22T12:24:50;6.28;;;4.53;;
19004;SDS011;9635;52.078;8.648;2023-11-22T12:29:53;5.45;;;4.30;;
19004;SDS011;9635;52.078;8.648;2023-11-22T12:34:57;5.10;;;3.97;;
19004;SDS011;9635;52.078;8.648;2023-11-22T12:40:10;3.42;;;2.78;;
19004;SDS011;9635;52.078;8.648;2023-11-22T12:45:19;8.45;;;3.95;;
19004;SDS011;9635;52.078;8.648;2023-11-22T12:50:33;5.00;;;3.45;;
19004;SDS011;9635;52.078;8.648;2023-11-22T12:55:48;3.30;;;2.88;;
19004;SDS011;9635;52.078;8.648;2023-11-22T13:00:53;4.40;;;2.92;;
19004;SDS011;9635;52.078;8.648;2023-11-22T13:06:03;3.45;;;2.63;;
19004;SDS011;9635;52.078;8.648;2023-11-22T13:11:07;3.70;;;2.65;;
19004;SDS011;9635;52.078;8.648;2023-11-22T13:16:10;4.13;;;2.70;;
19004;SDS011;9635;52.078;8.648;2023-11-22T13:21:21;6.47;;;2.53;;
19004;SDS011;9635;52.078;8.648;2023-11-22T13:26:24;3.58;;;2.92;;
19004;SDS011;9635;52.078;8.648;2023-11-22T13:31:27;5.28;;;2.80;;
19004;SDS011;9635;52.078;8.648;2023-11-22T13:36:32;2.50;;;2.30;;
19004;SDS011;9635;52.078;8.648;2023-11-22T13:41:35;3.20;;;2.42;;
19004;SDS011;9635;52.078;8.648;2023-11-22T13:46:38;6.22;;;2.63;;
19004;SDS011;9635;52.078;8.648;2023-11-22T13:51:43;2.40;;;2.20;;
19004;SDS011;9635;52.078;8.648;2023-11-22T13:56:46;3.50;;;2.38;;
19004;SDS011;9635;52.078;8.648;2023-11-22T14:01:49;4.28;;;2.95;;
19004;SDS011;9635;52.078;8.648;2023-11-22T14:06:55;4.28;;;2.60;;
19004;SDS011;9635;52.078;8.648;2023-11-22T14:11:58;3.47;;;2.60;;
19004;SDS011;9635;52.078;8.648;2023-11-22T14:17:01;4.57;;;2.55;;
19004;SDS011;9635;52.078;8.648;2023-11-22T14:22:06;6.22;;;2.58;;
19004;SDS011;9635;52.078;8.648;2023-11-22T14:27:12;4.60;;;2.63;;
19004;SDS011;9635;52.078;8.648;2023-11-22T14:32:15;5.75;;;3.45;;
19004;SDS011;9635;52.078;8.648;2023-11-22T14:37:20;5.40;;;3.00;;
19004;SDS011;9635;52.078;8.648;2023-11-22T14:42:23;6.13;;;2.83;;
19004;SDS011;9635;52.078;8.648;2023-11-22T14:47:26;4.28;;;2.85;;
19004;SDS011;9635;52.078;8.648;2023-11-22T14:52:34;4.43;;;3.17;;
19004;SDS011;9635;52.078;8.648;2023-11-22T14:57:38;5.60;;;4.07;;
19004;SDS011;9635;52.078;8.648;2023-11-22T15:02:42;5.63;;;3.67;;
19004;SDS011;9635;52.078;8.648;2023-11-22T15:07:50;7.72;;;4.45;;
19004;SDS011;9635;52.078;8.648;2023-11-22T15:12:57;6.85;;;3.97;;
19004;SDS011;9635;52.078;8.648;2023-11-22T15:18:00;10.30;;;4.53;;
19004;SDS011;9635;52.078;8.648;2023-11-22T15:23:04;7.72;;;4.57;;
19004;SDS011;9635;52.078;8.648;2023-11-22T15:28:09;7.38;;;5.35;;
19004;SDS011;9635;52.078;8.648;2023-11-22T15:33:12;7.45;;;4.85;;
19004;SDS011;9635;52.078;8.648;2023-11-22T15:38:17;9.38;;;4.78;;
19004;SDS011;9635;52.078;8.648;2023-11-22T15:43:20;9.38;;;4.32;;
19004;SDS011;9635;52.078;8.648;2023-11-22T15:48:23;8.50;;;4.82;;
19004;SDS011;9635;52.078;8.648;2023-11-22T15:53:28;7.25;;;4.68;;
19004;SDS011;9635;52.078;8.648;2023-11-22T15:58:31;7.40;;;4.18;;
19004;SDS011;9635;52.078;8.648;2023-11-22T16:03:34;9.73;;;3.67;;
19004;SDS011;9635;52.078;8.648;2023-11-22T16:08:38;7.30;;;4.22;;
19004;SDS011;9635;52.078;8.648;2023-11-22T16:13:42;5.82;;;3.65;;
19004;SDS011;9635;52.078;8.648;2023-11-22T16:18:46;7.70;;;4.50;;
19004;SDS011;9635;52.078;8.648;2023-11-22T16:23:51;12.23;;;5.00;;
19004;SDS011;9635;52.078;8.648;2023-11-22T16:28:54;7.60;;;5.05;;
19004;SDS011;9635;52.078;8.648;2023-11-22T16:33:58;6.95;;;4.28;;
19004;SDS011;9635;52.078;8.648;2023-11-22T16:39:04;7.47;;;5.07;;
19004;SDS011;9635;52.078;8.648;2023-11-22T16:44:25;4.88;;;3.10;;
19004;SDS011;9635;52.078;8.648;2023-11-22T16:49:29;5.90;;;4.28;;
19004;SDS011;9635;52.078;8.648;2023-11-22T16:54:33;7.35;;;4.30;;
19004;SDS011;9635;52.078;8.648;2023-11-22T16:59:40;7.78;;;4.82;;
19004;SDS011;9635;52.078;8.648;2023-11-22T17:04:43;7.50;;;3.22;;
19004;SDS011;9635;52.078;8.648;2023-11-22T17:09:49;7.57;;;4.95;;
19004;SDS011;9635;52.078;8.648;2023-11-22T17:14:52;9.23;;;4.97;;
19004;SDS011;9635;52.078;8.648;2023-11-22T17:19:55;6.60;;;4.53;;
19004;SDS011;9635;52.078;8.648;2023-11-22T17:25:00;5.90;;;4.18;;
19004;SDS011;9635;52.078;8.648;2023-11-22T17:30:10;8.18;;;4.47;;
19004;SDS011;9635;52.078;8.648;2023-11-22T17:35:14;4.85;;;3.92;;
19004;SDS011;9635;52.078;8.648;2023-11-22T17:40:18;7.63;;;4.20;;
19004;SDS011;9635;52.078;8.648;2023-11-22T17:45:22;8.07;;;4.30;;
19004;SDS011;9635;52.078;8.648;2023-11-22T17:50:25;13.18;;;4.60;;
19004;SDS011;9635;52.078;8.648;2023-11-22T17:55:29;6.25;;;4.28;;
19004;SDS011;9635;52.078;8.648;2023-11-22T18:00:33;5.15;;;4.05;;
19004;SDS011;9635;52.078;8.648;2023-11-22T18:05:35;6.22;;;4.97;;
19004;SDS011;9635;52.078;8.648;2023-11-22T18:10:40;6.72;;;4.57;;
19004;SDS011;9635;52.078;8.648;2023-11-22T18:15:47;6.57;;;4.72;;
19004;SDS011;9635;52.078;8.648;2023-11-22T18:20:50;7.32;;;4.07;;
19004;SDS011;9635;52.078;8.648;2023-11-22T18:25:55;9.40;;;5.25;;
19004;SDS011;9635;52.078;8.648;2023-11-22T18:30:58;8.00;;;4.85;;
19004;SDS011;9635;52.078;8.648;2023-11-22T18:36:01;7.75;;;4.75;;
19004;SDS011;9635;52.078;8.648;2023-11-22T18:41:06;8.25;;;4.82;;
19004;SDS011;9635;52.078;8.648;2023-11-22T18:46:09;7.57;;;4.65;;
19004;SDS011;9635;52.078;8.648;2023-11-22T18:51:12;7.38;;;4.97;;
19004;SDS011;9635;52.078;8.648;2023-11-22T18:56:18;9.90;;;5.50;;
19004;SDS011;9635;52.078;8.648;2023-11-22T19:01:21;8.95;;;5.25;;
19004;SDS011;9635;52.078;8.648;2023-11-22T19:06:24;8.60;;;5.47;;
19004;SDS011;9635;52.078;8.648;2023-11-22T19:11:32;7.18;;;3.92;;
19004;SDS011;9635;52.078;8.648;2023-11-22T19:16:43;7.60;;;4.32;;
19004;SDS011;9635;52.078;8.648;2023-11-22T19:21:47;9.07;;;4.65;;
19004;SDS011;9635;52.078;8.648;2023-11-22T19:26:55;8.13;;;4.75;;
19004;SDS011;9635;52.078;8.648;2023-11-22T19:32:01;12.43;;;5.03;;
19004;SDS011;9635;52.078;8.648;2023-11-22T19:37:04;10.40;;;6.10;;
19004;SDS011;9635;52.078;8.648;2023-11-22T19:42:10;11.70;;;5.40;;
19004;SDS011;9635;52.078;8.648;2023-11-22T19:47:13;13.15;;;5.82;;
19004;SDS011;9635;52.078;8.648;2023-11-22T19:52:16;12.85;;;6.30;;
19004;SDS011;9635;52.078;8.648;2023-11-22T20:02:52;11.30;;;5.93;;
19004;SDS011;9635;52.078;8.648;2023-11-22T20:07:56;9.57;;;5.90;;
19004;SDS011;9635;52.078;8.648;2023-11-22T20:13:03;12.63;;;5.68;;
19004;SDS011;9635;52.078;8.648;2023-11-22T20:18:07;21.52;;;6.20;;
19004;SDS011;9635;52.078;8.648;2023-11-22T20:23:11;8.48;;;4.57;;
19004;SDS011;9635;52.078;8.648;2023-11-22T20:28:20;9.95;;;5.75;;
19004;SDS011;9635;52.078;8.648;2023-11-22T20:33:23;11.13;;;6.75;;
19004;SDS011;9635;52.078;8.648;2023-11-22T20:38:26;18.05;;;5.68;;
19004;SDS011;9635;52.078;8.648;2023-11-22T20:43:31;10.30;;;5.90;;
19004;SDS011;9635;52.078;8.648;2023-11-22T20:48:34;8.52;;;5.40;;
19004;SDS011;9635;52.078;8.648;2023-11-22T20:53:37;7.55;;;4.72;;
19004;SDS011;9635;52.078;8.648;2023-11-22T20:58:41;10.80;;;6.05;;
19004;SDS011;9635;52.078;8.648;2023-11-22T21:03:44;11.30;;;5.63;;
19004;SDS011;9635;52.078;8.648;2023-11-22T21:08:48;13.82;;;6.90;;
19004;SDS011;9635;52.078;8.648;2023-11-22T21:13:54;10.52;;;5.28;;
19004;SDS011;9635;52.078;8.648;2023-11-22T21:18:58;10.23;;;6.05;;
19004;SDS011;9635;52.078;8.648;2023-11-22T21:24:02;10.98;;;6.43;;
19004;SDS011;9635;52.078;8.648;2023-11-22T21:29:07;10.23;;;5.32;;
19004;SDS011;9635;52.078;8.648;2023-11-22T21:34:11;9.57;;;4.95;;
19004;SDS011;9635;52.078;8.648;2023-11-22T21:39:14;12.95;;;7.03;;
19004;SDS011;9635;52.078;8.648;2023-11-22T21:44:21;11.93;;;5.97;;
19004;SDS011;9635;52.078;8.648;2023-11-22T21:49:24;10.32;;;5.88;;
19004;SDS011;9635;52.078;8.648;2023-11-22T21:54:27;9.10;;;5.35;;
19004;SDS011;9635;52.078;8.648;2023-11-22T22:05:06;6.10;;;3.72;;
19004;SDS011;9635;52.078;8.648;2023-11-22T22:10:09;7.57;;;4.30;;
19004;SDS011;9635;52.078;8.648;2023-11-22T22:15:17;9.93;;;5.40;;
19004;SDS011;9635;52.078;8.648;2023-11-22T22:20:22;12.48;;;5.40;;
19004;SDS011;9635;52.078;8.648;2023-11-22T22:25:26;9.90;;;6.30;;
19004;SDS011;9635;52.078;8.648;2023-11-22T22:30:31;8.80;;;4.70;;
19004;SDS011;9635;52.078;8.648;2023-11-22T22:35:35;13.15;;;6.65;;
19004;SDS011;9635;52.078;8.648;2023-11-22T22:40:38;12.98;;;5.60;;
19004;SDS011;9635;52.078;8.648;2023-11-22T22:45:42;11.25;;;6.10;;
19004;SDS011;9635;52.078;8.648;2023-11-22T22:50:46;12.38;;;6.45;;
19004;SDS011;9635;52.078;8.648;2023-11-22T22:55:49;14.32;;;6.60;;
19004;SDS011;9635;52.078;8.648;2023-11-22T23:00:54;14.45;;;7.60;;
19004;SDS011;9635;52.078;8.648;2023-11-22T23:05:58;10.55;;;6.95;;
19004;SDS011;9635;52.078;8.648;2023-11-22T23:11:02;17.10;;;8.88;;
19004;SDS011;9635;52.078;8.648;2023-11-22T23:16:08;14.45;;;8.57;;
19004;SDS011;9635;52.078;8.648;2023-11-22T23:21:11;16.40;;;7.88;;
19004;SDS011;9635;52.078;8.648;2023-11-22T23:26:17;11.45;;;6.38;;
19004;SDS011;9635;52.078;8.648;2023-11-22T23:31:22;15.45;;;8.55;;
19004;SDS011;9635;52.078;8.648;2023-11-22T23:36:25;20.35;;;7.78;;
19004;SDS011;9635;52.078;8.648;2023-11-22T23:41:30;12.65;;;6.53;;
19004;SDS011;9635;52.078;8.648;2023-11-22T23:46:37;21.02;;;9.38;;
19004;SDS011;9635;52.078;8.648;2023-11-22T23:51:43;8.18;;;4.97;;
19004;SDS011;9635;52.078;8.648;2023-11-22T23:56:46;21.70;;;8.80;;
